createdAt,value
2018-11-03T00:00:15.511Z,11.03
2018-11-03T00:02:43.147Z,11.60
2018-11-03T00:05:10.099Z,12.27
2018-11-03T00:07:37.066Z,12.73
2018-11-03T00:10:05.054Z,10.83
2018-11-03T00:12:31.954Z,11.80
2018-11-03T00:14:58.899Z,12.67
2018-11-03T00:17:25.854Z,9.53
2018-11-03T00:19:53.811Z,9.97
2018-11-03T00:22:20.770Z,12.90
2018-11-03T00:24:47.696Z,10.73
2018-11-03T00:27:14.651Z,11.50
2018-11-03T00:29:41.603Z,10.47
2018-11-03T00:32:08.546Z,11.27
2018-11-03T00:34:35.488Z,9.10
2018-11-03T00:37:02.422Z,11.23
2018-11-03T00:39:29.382Z,10.37
2018-11-03T00:41:56.319Z,9.30
2018-11-03T00:44:23.258Z,9.27
2018-11-03T00:46:50.203Z,10.77
2018-11-03T00:49:17.142Z,13.13
2018-11-03T00:51:43.987Z,11.97
2018-11-03T00:54:10.987Z,20.90
2018-11-03T00:56:37.879Z,13.03
2018-11-03T00:59:04.834Z,11.90
2018-11-03T01:01:31.773Z,11.63
2018-11-03T01:03:58.674Z,21.87
2018-11-03T01:06:25.627Z,12.30
2018-11-03T01:08:52.559Z,12.27
2018-11-03T01:11:19.499Z,12.20
2018-11-03T01:13:46.411Z,11.13
2018-11-03T01:16:13.393Z,11.23
2018-11-03T01:18:40.335Z,11.30
2018-11-03T01:21:07.300Z,9.63
2018-11-03T01:23:35.199Z,10.53
2018-11-03T01:26:02.026Z,12.07
2018-11-03T01:28:28.931Z,11.30
2018-11-03T01:30:55.879Z,9.90
2018-11-03T01:33:22.803Z,12.13
2018-11-03T01:35:50.709Z,14.83
2018-11-03T01:38:17.644Z,12.20
2018-11-03T01:40:44.583Z,11.90
2018-11-03T01:43:11.573Z,12.20
2018-11-03T01:45:38.517Z,11.70
2018-11-03T01:48:05.414Z,13.67
2018-11-03T01:50:33.401Z,10.97
2018-11-03T01:53:00.329Z,16.13
2018-11-03T01:55:27.214Z,10.53
2018-11-03T01:57:54.083Z,11.73
2018-11-03T02:00:20.944Z,11.33
2018-11-03T02:02:47.903Z,12.03
2018-11-03T02:05:14.883Z,10.47
2018-11-03T02:07:41.783Z,12.47
2018-11-03T02:10:09.331Z,12.70
2018-11-03T02:12:36.290Z,9.80
2018-11-03T02:15:03.239Z,13.07
2018-11-03T02:17:30.195Z,9.67
2018-11-03T02:19:57.135Z,12.70
2018-11-03T02:22:24.079Z,12.90
2018-11-03T02:24:51.015Z,11.33
2018-11-03T02:27:17.919Z,8.63
2018-11-03T02:29:44.811Z,14.83
2018-11-03T02:32:11.752Z,9.03
2018-11-03T02:34:38.738Z,9.80
2018-11-03T02:37:05.654Z,11.37
2018-11-03T02:39:32.612Z,9.13
2018-11-03T02:41:59.559Z,10.05
2018-11-03T02:44:26.495Z,10.35
2018-11-03T02:46:53.444Z,11.40
2018-11-03T02:49:20.383Z,12.82
2018-11-03T02:51:47.323Z,10.03
2018-11-03T02:54:14.259Z,11.13
2018-11-03T02:56:41.211Z,9.10
2018-11-03T02:59:11.575Z,7.83
2018-11-03T03:01:38.464Z,14.93
2018-11-03T03:04:05.439Z,13.70
2018-11-03T03:06:32.367Z,14.13
2018-11-03T03:08:59.267Z,9.60
2018-11-03T03:11:26.143Z,8.40
2018-11-03T03:13:53.101Z,10.35
2018-11-03T03:16:20.067Z,9.75
2018-11-03T03:18:46.981Z,10.33
2018-11-03T03:21:14.953Z,9.30
2018-11-03T03:23:42.912Z,12.63
2018-11-03T03:26:10.891Z,6.80
2018-11-03T03:28:37.833Z,11.40
2018-11-03T03:31:04.776Z,6.60
2018-11-03T03:33:31.726Z,7.10
2018-11-03T03:35:58.668Z,7.40
2018-11-03T03:38:25.696Z,7.00
2018-11-03T03:40:52.656Z,7.00
2018-11-03T03:43:19.570Z,6.43
2018-11-03T03:45:46.567Z,6.77
2018-11-03T03:48:13.615Z,6.10
2018-11-03T03:50:40.534Z,12.53
2018-11-03T03:53:07.480Z,8.10
2018-11-03T03:55:34.350Z,10.70
2018-11-03T03:58:01.264Z,13.20
2018-11-03T04:00:28.218Z,9.67
2018-11-03T04:02:56.082Z,8.37
2018-11-03T04:05:23.940Z,11.73
2018-11-03T04:07:50.891Z,13.30
2018-11-03T04:10:17.838Z,9.43
2018-11-03T04:12:44.783Z,10.50
2018-11-03T04:15:11.728Z,8.47
2018-11-03T04:17:38.675Z,10.30
2018-11-03T04:20:09.324Z,8.30
2018-11-03T04:22:36.251Z,14.50
2018-11-03T04:25:03.219Z,13.03
2018-11-03T04:27:30.135Z,7.70
2018-11-03T04:29:57.163Z,10.90
2018-11-03T04:32:24.122Z,9.03
2018-11-03T04:34:51.081Z,14.13
2018-11-03T04:37:17.953Z,10.30
2018-11-03T04:39:44.856Z,9.90
2018-11-03T04:42:11.815Z,11.00
2018-11-03T04:44:38.833Z,12.13
2018-11-03T04:47:05.715Z,12.30
2018-11-03T04:49:32.666Z,13.10
2018-11-03T04:52:00.606Z,14.67
2018-11-03T04:54:27.483Z,13.87
2018-11-03T04:56:54.394Z,15.03
2018-11-03T04:59:21.375Z,16.70
2018-11-03T05:01:48.286Z,19.70
2018-11-03T05:04:15.239Z,16.57
2018-11-03T05:06:43.098Z,14.50
2018-11-03T05:09:10.391Z,13.83
2018-11-03T05:11:38.442Z,17.43
2018-11-03T05:14:05.848Z,13.57
2018-11-03T05:16:32.827Z,16.23
2018-11-03T05:18:59.755Z,17.03
2018-11-03T05:21:29.741Z,14.97
2018-11-03T05:23:57.666Z,18.10
2018-11-03T05:26:24.535Z,16.03
2018-11-03T05:28:52.464Z,14.80
2018-11-03T05:31:19.468Z,18.30
2018-11-03T05:33:46.348Z,18.83
2018-11-03T05:36:14.323Z,17.57
2018-11-03T05:38:41.287Z,21.63
2018-11-03T05:41:08.212Z,19.90
2018-11-03T05:43:35.155Z,18.70
2018-11-03T05:46:02.087Z,17.17
2018-11-03T05:48:29.050Z,17.00
2018-11-03T05:50:55.998Z,21.63
2018-11-03T05:53:22.934Z,20.07
2018-11-03T05:55:49.908Z,21.20
2018-11-03T05:58:16.820Z,17.60
2018-11-03T06:00:43.767Z,20.50
2018-11-03T06:03:10.711Z,18.47
2018-11-03T06:05:37.588Z,17.90
2018-11-03T06:08:04.842Z,18.33
2018-11-03T06:10:31.805Z,20.83
2018-11-03T06:12:58.666Z,24.27
2018-11-03T06:15:25.571Z,21.67
2018-11-03T06:17:52.485Z,20.40
2018-11-03T06:20:19.425Z,19.53
2018-11-03T06:22:46.388Z,19.33
2018-11-03T06:25:13.403Z,19.70
2018-11-03T06:27:40.363Z,22.33
2018-11-03T06:30:08.148Z,22.97
2018-11-03T06:32:35.243Z,15.67
2018-11-03T06:35:02.520Z,21.10
2018-11-03T06:37:29.276Z,23.73
2018-11-03T06:39:56.220Z,19.93
2018-11-03T06:42:23.163Z,21.07
2018-11-03T06:44:51.136Z,20.73
2018-11-03T06:47:18.163Z,17.50
2018-11-03T06:49:45.027Z,18.30
2018-11-03T06:52:12.076Z,22.17
2018-11-03T06:54:38.907Z,20.40
2018-11-03T06:57:06.731Z,18.87
2018-11-03T06:59:33.632Z,21.20
2018-11-03T07:02:00.698Z,17.03
2018-11-03T07:04:27.634Z,17.77
2018-11-03T07:06:54.578Z,23.60
2018-11-03T07:09:21.517Z,23.10
2018-11-03T07:11:48.453Z,15.50
2018-11-03T07:14:15.380Z,20.33
2018-11-03T07:16:42.326Z,18.57
2018-11-03T07:19:09.266Z,18.17
2018-11-03T07:21:37.323Z,18.40
2018-11-03T07:24:04.246Z,20.03
2018-11-03T07:26:31.135Z,17.60
2018-11-03T07:28:58.084Z,16.30
2018-11-03T07:31:25.016Z,16.80
2018-11-03T07:33:51.982Z,18.17
2018-11-03T07:36:18.917Z,15.63
2018-11-03T07:38:45.857Z,16.83
2018-11-03T07:41:12.800Z,14.70
2018-11-03T07:43:39.748Z,18.27
2018-11-03T07:46:06.707Z,15.40
2018-11-03T07:48:33.647Z,22.37
2018-11-03T07:51:00.939Z,15.90
2018-11-03T07:53:27.870Z,14.97
2018-11-03T07:55:55.823Z,16.20
2018-11-03T07:58:22.778Z,18.92
2018-11-03T08:00:49.712Z,18.63
2018-11-03T08:03:16.644Z,17.83
2018-11-03T08:05:43.571Z,18.20
2018-11-03T08:08:10.530Z,17.30
2018-11-03T08:10:37.465Z,16.52
2018-11-03T08:13:05.172Z,15.43
2018-11-03T08:15:32.136Z,20.13
2018-11-03T08:17:59.028Z,15.47
2018-11-03T08:20:25.963Z,16.73
2018-11-03T08:22:52.903Z,16.23
2018-11-03T08:25:19.859Z,17.50
2018-11-03T08:27:46.844Z,14.00
2018-11-03T08:30:14.108Z,14.83
2018-11-03T08:32:41.587Z,16.97
2018-11-03T08:35:09.559Z,18.00
2018-11-03T08:37:36.541Z,13.90
2018-11-03T08:40:04.831Z,16.20
2018-11-03T08:42:31.743Z,16.50
2018-11-03T08:44:58.760Z,21.80
2018-11-03T08:47:25.760Z,15.57
2018-11-03T08:49:52.687Z,15.10
2018-11-03T08:52:19.619Z,17.43
2018-11-03T08:54:46.603Z,20.10
2018-11-03T08:57:13.515Z,17.00
2018-11-03T08:59:40.573Z,15.90
2018-11-03T09:02:07.455Z,16.97
2018-11-03T09:04:34.366Z,19.27
2018-11-03T09:07:01.374Z,18.60
2018-11-03T09:09:28.263Z,17.27
2018-11-03T09:11:55.205Z,20.43
2018-11-03T09:14:22.177Z,19.20
2018-11-03T09:16:49.075Z,18.27
2018-11-03T09:19:16.146Z,16.53
2018-11-03T09:21:43.041Z,18.93
2018-11-03T09:24:09.942Z,18.30
2018-11-03T09:26:36.920Z,18.57
2018-11-03T09:29:03.931Z,17.80
2018-11-03T09:31:30.845Z,19.00
2018-11-03T09:33:57.788Z,21.27
2018-11-03T09:36:25.275Z,18.23
2018-11-03T09:38:52.303Z,18.43
2018-11-03T09:41:19.340Z,16.45
2018-11-03T09:43:46.303Z,16.97
2018-11-03T09:46:13.230Z,19.70
2018-11-03T09:48:40.389Z,17.37
2018-11-03T09:51:07.432Z,14.83
2018-11-03T09:53:34.275Z,20.00
2018-11-03T09:56:01.224Z,19.53
2018-11-03T09:58:28.195Z,15.87
2018-11-03T10:00:55.384Z,14.83
2018-11-03T10:03:22.247Z,20.27
2018-11-03T10:05:49.186Z,14.80
2018-11-03T10:08:16.239Z,12.93
2018-11-03T10:10:43.224Z,17.03
2018-11-03T10:13:10.150Z,15.20
2018-11-03T10:15:37.109Z,21.33
2018-11-03T10:18:04.190Z,17.40
2018-11-03T10:20:31.083Z,16.83
2018-11-03T10:22:58.158Z,18.23
2018-11-03T10:25:24.971Z,21.33
2018-11-03T10:27:51.943Z,12.70
2018-11-03T10:30:18.857Z,14.90
2018-11-03T10:32:46.339Z,16.53
2018-11-03T10:35:13.664Z,16.87
2018-11-03T10:37:40.900Z,16.00
2018-11-03T10:40:09.937Z,17.00
2018-11-03T10:42:37.874Z,21.50
2018-11-03T10:45:06.503Z,14.73
2018-11-03T10:47:33.411Z,14.70
2018-11-03T10:50:00.338Z,13.50
2018-11-03T10:52:27.287Z,15.77
2018-11-03T10:54:54.247Z,16.00
2018-11-03T10:57:21.171Z,14.43
2018-11-03T10:59:48.490Z,17.43
2018-11-03T11:02:21.287Z,18.97
2018-11-03T11:04:53.887Z,15.80
2018-11-03T11:07:30.292Z,16.93
2018-11-03T11:10:02.998Z,16.23
2018-11-03T11:12:35.503Z,15.30
2018-11-03T11:15:02.458Z,16.53
2018-11-03T11:17:29.416Z,18.57
2018-11-03T11:19:56.347Z,15.03
2018-11-03T11:22:23.291Z,18.93
2018-11-03T11:24:50.334Z,17.97
2018-11-03T11:27:17.203Z,15.90
2018-11-03T11:29:44.128Z,15.67
2018-11-03T11:32:11.068Z,16.83
2018-11-03T11:34:38.208Z,15.17
2018-11-03T11:37:05.188Z,17.40
2018-11-03T11:39:32.108Z,21.03
2018-11-03T11:41:59.083Z,15.80
2018-11-03T11:44:26.013Z,17.10
2018-11-03T11:46:52.943Z,20.93
2018-11-03T11:49:19.911Z,20.07
2018-11-03T11:51:46.826Z,20.07
2018-11-03T11:54:13.783Z,16.60
2018-11-03T11:56:40.775Z,22.27
2018-11-03T11:59:07.659Z,19.40
2018-11-03T12:01:34.619Z,18.00
2018-11-03T12:04:01.551Z,17.90
2018-11-03T12:06:28.532Z,16.27
2018-11-03T12:08:55.461Z,15.20
2018-11-03T12:11:22.400Z,16.47
2018-11-03T12:13:49.331Z,14.10
2018-11-03T12:16:16.443Z,19.80
2018-11-03T12:18:43.335Z,16.70
2018-11-03T12:21:10.284Z,19.37
2018-11-03T12:23:37.310Z,21.53
2018-11-03T12:26:04.723Z,16.60
2018-11-03T12:28:31.618Z,17.47
2018-11-03T12:30:58.592Z,18.03
2018-11-03T12:33:25.577Z,16.73
2018-11-03T12:35:53.497Z,18.90
2018-11-03T12:38:21.232Z,15.07
2018-11-03T12:40:48.318Z,18.70
2018-11-03T12:43:15.140Z,15.87
2018-11-03T12:45:42.072Z,19.10
2018-11-03T12:48:09.089Z,19.17
2018-11-03T12:50:37.055Z,17.80
2018-11-03T12:53:03.957Z,18.80
2018-11-03T12:55:30.878Z,18.17
2018-11-03T12:57:57.826Z,16.73
2018-11-03T13:00:24.859Z,17.63
2018-11-03T13:02:51.727Z,18.30
2018-11-03T13:05:18.766Z,16.83
2018-11-03T13:07:45.778Z,19.70
2018-11-03T13:10:12.784Z,20.93
2018-11-03T13:12:40.407Z,21.20
2018-11-03T13:15:09.499Z,16.57
2018-11-03T13:17:36.792Z,18.00
2018-11-03T13:20:04.975Z,18.80
2018-11-03T13:22:31.897Z,15.30
2018-11-03T13:24:58.821Z,23.20
2018-11-03T13:27:25.790Z,17.43
2018-11-03T13:29:53.507Z,15.10
2018-11-03T13:32:20.386Z,20.57
2018-11-03T13:34:47.310Z,16.37
2018-11-03T13:37:14.266Z,16.67
2018-11-03T13:39:41.202Z,13.47
2018-11-03T13:42:08.154Z,20.70
2018-11-03T13:44:35.140Z,16.10
2018-11-03T13:47:02.100Z,15.73
2018-11-03T13:49:28.991Z,16.03
2018-11-03T13:51:55.940Z,14.70
2018-11-03T13:54:22.954Z,16.03
2018-11-03T13:56:49.879Z,16.60
2018-11-03T13:59:16.847Z,16.57
2018-11-03T14:01:43.850Z,18.90
2018-11-03T14:04:10.783Z,18.50
2018-11-03T14:06:37.699Z,18.00
2018-11-03T14:09:05.938Z,17.13
2018-11-03T14:11:32.819Z,14.60
2018-11-03T14:13:59.775Z,14.87
2018-11-03T14:16:26.739Z,17.83
2018-11-03T14:18:55.604Z,16.53
2018-11-03T14:21:22.558Z,15.10
2018-11-03T14:23:49.481Z,16.30
2018-11-03T14:26:16.495Z,20.60
2018-11-03T14:28:48.462Z,18.20
2018-11-03T14:31:15.350Z,14.63
2018-11-03T14:33:42.301Z,12.63
2018-11-03T14:36:09.351Z,17.23
2018-11-03T14:38:36.275Z,14.20
2018-11-03T14:41:03.583Z,14.90
2018-11-03T14:43:30.475Z,14.87
2018-11-03T14:45:57.415Z,14.83
2018-11-03T14:48:24.351Z,17.13
2018-11-03T14:50:51.346Z,15.27
2018-11-03T14:53:18.333Z,18.43
2018-11-03T14:55:45.237Z,16.03
2018-11-03T14:58:12.131Z,14.53
2018-11-03T15:00:39.094Z,14.93
2018-11-03T15:03:06.639Z,15.48
2018-11-03T15:05:33.579Z,16.60
2018-11-03T15:08:00.527Z,14.37
2018-11-03T15:10:27.487Z,14.40
2018-11-03T15:12:54.467Z,14.50
2018-11-03T15:15:21.368Z,14.50
2018-11-03T15:17:48.318Z,13.95
2018-11-03T15:20:15.262Z,14.13
2018-11-03T15:22:43.115Z,17.23
2018-11-03T15:25:11.175Z,12.77
2018-11-03T15:27:38.387Z,17.70
2018-11-03T15:30:06.979Z,18.70
2018-11-03T15:32:33.890Z,20.57
2018-11-03T15:35:01.080Z,14.27
2018-11-03T15:37:27.862Z,17.37
2018-11-03T15:39:54.815Z,16.87
2018-11-03T15:42:21.988Z,13.30
2018-11-03T15:44:48.915Z,16.57
2018-11-03T15:47:15.839Z,13.00
2018-11-03T15:49:42.786Z,15.30
2018-11-03T15:52:09.780Z,15.57
2018-11-03T15:54:36.686Z,15.07
2018-11-03T15:57:04.363Z,11.73
2018-11-03T15:59:33.246Z,19.70
2018-11-03T16:02:00.175Z,20.00
2018-11-03T16:04:27.128Z,13.43
2018-11-03T16:06:55.395Z,13.30
2018-11-03T16:09:24.328Z,16.13
2018-11-03T16:11:51.272Z,13.43
2018-11-03T16:14:18.192Z,12.60
2018-11-03T16:16:45.138Z,14.13
2018-11-03T16:19:12.253Z,14.17
2018-11-03T16:21:43.939Z,14.87
2018-11-03T16:24:10.929Z,14.20
2018-11-03T16:26:37.831Z,13.70
2018-11-03T16:29:04.783Z,13.20
2018-11-03T16:31:32.759Z,15.07
2018-11-03T16:34:00.712Z,13.00
2018-11-03T16:36:27.663Z,15.23
2018-11-03T16:38:56.568Z,12.30
2018-11-03T16:41:25.567Z,17.63
2018-11-03T16:43:52.475Z,19.97
2018-11-03T16:46:19.422Z,16.10
2018-11-03T16:48:46.547Z,15.73
2018-11-03T16:51:14.806Z,18.20
2018-11-03T16:53:43.776Z,15.77
2018-11-03T16:56:10.691Z,17.10
2018-11-03T16:58:37.726Z,15.33
2018-11-03T17:01:08.368Z,17.20
2018-11-03T17:03:35.278Z,18.33
2018-11-03T17:06:02.171Z,15.07
2018-11-03T17:08:29.182Z,15.67
2018-11-03T17:10:58.171Z,16.77
2018-11-03T17:13:25.038Z,13.40
2018-11-03T17:15:52.033Z,15.57
2018-11-03T17:18:18.931Z,13.17
2018-11-03T17:20:45.871Z,16.83
2018-11-03T17:23:12.894Z,14.77
2018-11-03T17:25:40.083Z,13.27
2018-11-03T17:28:07.012Z,18.03
2018-11-03T17:30:33.962Z,12.93
2018-11-03T17:33:04.203Z,11.87
2018-11-03T17:35:34.814Z,15.20
2018-11-03T17:38:01.767Z,17.23
2018-11-03T17:40:28.694Z,13.13
2018-11-03T17:42:56.688Z,13.17
2018-11-03T17:45:23.663Z,15.03
2018-11-03T17:47:50.567Z,14.30
2018-11-03T17:50:17.500Z,14.87
2018-11-03T17:52:44.479Z,13.23
2018-11-03T17:55:11.470Z,11.80
2018-11-03T17:57:38.479Z,18.25
2018-11-03T18:00:09.430Z,12.07
2018-11-03T18:02:36.235Z,16.48
2018-11-03T18:05:03.559Z,17.40
2018-11-03T18:07:30.529Z,13.40
2018-11-03T18:09:57.463Z,18.53
2018-11-03T18:12:24.407Z,19.10
2018-11-03T18:14:52.277Z,13.43
2018-11-03T18:17:19.218Z,17.20
2018-11-03T18:19:47.345Z,12.63
2018-11-03T18:22:14.281Z,11.43
2018-11-03T18:24:41.307Z,14.53
2018-11-03T18:27:08.404Z,16.13
2018-11-03T18:29:35.347Z,15.45
2018-11-03T18:32:03.794Z,11.70
2018-11-03T18:34:30.857Z,21.60
2018-11-03T18:36:57.847Z,14.07
2018-11-03T18:39:26.888Z,16.43
2018-11-03T18:41:54.882Z,15.87
2018-11-03T18:44:23.918Z,13.60
2018-11-03T18:46:51.951Z,14.20
2018-11-03T18:49:19.002Z,18.12
2018-11-03T18:51:48.056Z,15.40
2018-11-03T18:54:15.008Z,18.97
2018-11-03T18:56:43.064Z,19.00
2018-11-03T18:59:12.019Z,18.87
2018-11-03T19:01:39.088Z,14.13
2018-11-03T19:04:09.386Z,15.47
2018-11-03T19:06:36.351Z,16.00
2018-11-03T19:09:06.004Z,19.70
2018-11-03T19:11:33.081Z,15.60
2018-11-03T19:14:00.083Z,16.23
2018-11-03T19:16:27.035Z,17.37
2018-11-03T19:18:53.989Z,18.30
2018-11-03T19:21:20.943Z,17.27
2018-11-03T19:23:48.000Z,19.30
2018-11-03T19:26:14.936Z,14.93
2018-11-03T19:28:41.983Z,15.80
2018-11-03T19:31:08.896Z,18.50
2018-11-03T19:33:36.184Z,19.47
2018-11-03T19:36:03.168Z,19.23
2018-11-03T19:38:30.170Z,18.13
2018-11-03T19:40:57.158Z,19.70
2018-11-03T19:43:24.089Z,18.83
2018-11-03T19:45:53.091Z,18.00
2018-11-03T19:48:20.187Z,16.47
2018-11-03T19:50:47.226Z,21.80
2018-11-03T19:53:14.315Z,21.47
2018-11-03T19:55:41.395Z,17.00
2018-11-03T19:58:09.379Z,19.53
2018-11-03T20:00:36.471Z,19.57
2018-11-03T20:03:03.540Z,23.20
2018-11-03T20:05:30.475Z,24.47
2018-11-03T20:07:57.455Z,17.10
2018-11-03T20:10:24.462Z,21.97
2018-11-03T20:12:51.343Z,20.27
2018-11-03T20:15:18.303Z,16.90
2018-11-03T20:17:45.223Z,17.80
2018-11-03T20:20:13.067Z,17.33
2018-11-03T20:22:40.053Z,23.83
2018-11-03T20:25:11.544Z,20.97
2018-11-03T20:27:38.468Z,18.97
2018-11-03T20:30:07.843Z,20.10
2018-11-03T20:32:34.850Z,20.48
2018-11-03T20:35:01.775Z,26.70
2018-11-03T20:37:28.683Z,19.10
2018-11-03T20:39:55.674Z,19.27
2018-11-03T20:42:22.630Z,21.30
2018-11-03T20:44:49.533Z,18.77
2018-11-03T20:47:16.536Z,22.57
2018-11-03T20:49:43.531Z,19.20
2018-11-03T20:52:10.533Z,21.87
2018-11-03T20:54:37.480Z,22.50
2018-11-03T20:57:04.491Z,23.50
2018-11-03T20:59:32.470Z,26.53
2018-11-03T21:01:59.624Z,21.17
2018-11-03T21:04:26.531Z,24.40
2018-11-03T21:06:53.480Z,24.70
2018-11-03T21:09:20.447Z,20.40
2018-11-03T21:11:49.404Z,20.95
2018-11-03T21:14:16.347Z,22.70
2018-11-03T21:19:16.475Z,21.82
2018-11-03T21:21:43.455Z,20.83
2018-11-03T21:24:10.737Z,22.35
2018-11-03T21:26:37.651Z,22.17
2018-11-03T21:29:05.120Z,21.47
2018-11-03T21:31:32.081Z,24.00
2018-11-03T21:34:00.115Z,24.73
2018-11-03T21:36:27.021Z,22.50
2018-11-03T21:38:55.068Z,24.90
2018-11-03T21:41:22.051Z,22.47
2018-11-03T21:43:48.963Z,20.03
2018-11-03T21:46:15.972Z,22.23
2018-11-03T21:48:43.774Z,25.30
2018-11-03T21:51:10.727Z,20.17
2018-11-03T21:53:38.592Z,26.73
2018-11-03T21:56:07.949Z,20.40
2018-11-03T21:58:34.715Z,25.80
2018-11-03T22:01:02.595Z,22.00
2018-11-03T22:03:30.455Z,22.90
2018-11-03T22:05:57.419Z,25.30
2018-11-03T22:08:24.349Z,22.90
2018-11-03T22:10:51.303Z,21.20
2018-11-03T22:13:18.239Z,24.33
2018-11-03T22:15:45.201Z,21.23
2018-11-03T22:18:12.163Z,21.23
2018-11-03T22:20:39.129Z,21.37
2018-11-03T22:23:07.043Z,23.70
2018-11-03T22:25:34.000Z,23.30
2018-11-03T22:28:01.007Z,25.90
2018-11-03T22:30:27.894Z,22.77
2018-11-03T22:32:54.835Z,21.10
2018-11-03T22:35:21.784Z,21.57
2018-11-03T22:37:48.739Z,21.20
2018-11-03T22:40:15.690Z,25.23
2018-11-03T22:42:43.735Z,21.87
2018-11-03T22:45:10.692Z,21.70
2018-11-03T22:47:37.676Z,24.20
2018-11-03T22:50:04.696Z,20.30
2018-11-03T22:52:31.636Z,22.90
2018-11-03T22:54:58.616Z,24.73
2018-11-03T22:57:25.502Z,25.70
2018-11-03T22:59:52.456Z,25.90
2018-11-03T23:02:19.390Z,24.73
2018-11-03T23:04:46.319Z,23.50
2018-11-03T23:07:13.279Z,23.27
2018-11-03T23:09:40.227Z,23.07
2018-11-03T23:12:07.205Z,22.90
2018-11-03T23:14:35.262Z,22.60
2018-11-03T23:17:02.197Z,22.07
2018-11-03T23:19:30.054Z,23.33
2018-11-03T23:21:57.010Z,23.90
2018-11-03T23:24:23.932Z,23.60
2018-11-03T23:26:51.810Z,24.20
2018-11-03T23:29:19.721Z,26.57
2018-11-03T23:31:48.670Z,23.60
2018-11-03T23:34:15.618Z,21.90
2018-11-03T23:36:42.556Z,24.70
2018-11-03T23:39:10.615Z,24.20
2018-11-03T23:41:37.780Z,27.07
2018-11-03T23:44:04.797Z,24.63
2018-11-03T23:46:31.655Z,26.10
2018-11-03T23:48:59.590Z,23.30
2018-11-03T23:51:26.471Z,20.43
2018-11-03T23:53:55.383Z,24.20
2018-11-03T23:56:22.326Z,20.80
2018-11-03T23:58:49.244Z,23.67
